createdAt,value
2019-06-20T00:00:47.655Z,19.20
2019-06-20T00:03:16.631Z,18.80
2019-06-20T00:05:45.268Z,18.40
2019-06-20T00:08:13.979Z,18.20
2019-06-20T00:10:43.183Z,18.10
2019-06-20T00:13:11.873Z,18.10
2019-06-20T00:15:40.763Z,18.30
2019-06-20T00:18:09.656Z,18.90
2019-06-20T00:20:38.247Z,18.50
2019-06-20T00:23:06.884Z,18.60
2019-06-20T00:25:35.618Z,18.30
2019-06-20T00:28:04.385Z,17.90
2019-06-20T00:30:32.999Z,17.90
2019-06-20T00:33:01.739Z,17.50
2019-06-20T00:35:30.514Z,17.50
2019-06-20T00:37:59.088Z,17.30
2019-06-20T00:40:27.630Z,17.50
2019-06-20T00:42:56.208Z,17.50
2019-06-20T00:45:25.203Z,17.70
2019-06-20T00:47:54.025Z,17.70
2019-06-20T00:50:22.670Z,18.00
2019-06-20T00:52:51.236Z,18.50
2019-06-20T00:55:19.934Z,19.20
2019-06-20T00:57:48.569Z,19.10
2019-06-20T01:00:17.787Z,19.40
2019-06-20T01:02:46.345Z,19.10
2019-06-20T01:05:15.058Z,18.70
2019-06-20T01:07:43.812Z,18.50
2019-06-20T01:10:12.738Z,18.90
2019-06-20T01:12:41.323Z,19.00
2019-06-20T01:15:10.519Z,19.30
2019-06-20T01:17:39.329Z,19.20
2019-06-20T01:20:09.678Z,19.30
2019-06-20T01:22:38.306Z,19.00
2019-06-20T01:25:09.108Z,18.60
2019-06-20T01:27:38.252Z,18.40
2019-06-20T01:30:08.830Z,18.20
2019-06-20T01:32:37.566Z,18.00
2019-06-20T01:35:08.192Z,17.90
2019-06-20T01:37:37.130Z,18.40
2019-06-20T01:40:06.957Z,18.50
2019-06-20T01:42:35.584Z,18.30
2019-06-20T01:45:06.502Z,18.10
2019-06-20T01:47:35.358Z,18.00
2019-06-20T01:50:05.327Z,17.90
2019-06-20T01:52:33.880Z,18.50
2019-06-20T01:55:02.512Z,18.90
2019-06-20T01:57:31.091Z,19.40
2019-06-20T01:59:59.912Z,19.50
2019-06-20T02:02:28.558Z,19.20
2019-06-20T02:04:57.177Z,19.00
2019-06-20T02:07:28.081Z,19.10
2019-06-20T02:09:56.126Z,18.90
2019-06-20T02:12:24.752Z,18.80
2019-06-20T02:14:53.232Z,18.50
2019-06-20T02:17:21.816Z,18.00
2019-06-20T02:19:53.204Z,18.30
2019-06-20T02:22:21.912Z,17.60
2019-06-20T02:24:50.437Z,17.60
2019-06-20T02:27:19.939Z,18.10
2019-06-20T02:29:48.495Z,18.20
2019-06-20T02:32:17.141Z,18.80
2019-06-20T02:34:45.812Z,19.00
2019-06-20T02:37:14.384Z,18.70
2019-06-20T02:39:42.967Z,18.70
2019-06-20T02:42:11.601Z,18.30
2019-06-20T02:44:40.241Z,17.50
2019-06-20T02:47:08.990Z,17.50
2019-06-20T02:49:37.600Z,16.90
2019-06-20T02:52:06.229Z,16.90
2019-06-20T02:54:34.791Z,17.30
2019-06-20T02:57:03.487Z,17.30
2019-06-20T02:59:31.967Z,17.10
2019-06-20T03:02:00.476Z,17.00
2019-06-20T03:04:28.947Z,17.50
2019-06-20T03:06:57.440Z,17.10
2019-06-20T03:09:25.952Z,17.40
2019-06-20T03:11:54.550Z,18.00
2019-06-20T03:14:23.112Z,17.80
2019-06-20T03:16:51.769Z,17.80
2019-06-20T03:19:20.351Z,17.60
2019-06-20T03:21:49.098Z,18.10
2019-06-20T03:24:17.833Z,17.50
2019-06-20T03:26:46.309Z,17.70
2019-06-20T03:29:14.814Z,17.80
2019-06-20T03:31:43.323Z,17.60
2019-06-20T03:34:11.960Z,17.60
2019-06-20T03:36:40.728Z,17.30
2019-06-20T03:39:15.726Z,17.40
2019-06-20T03:41:44.342Z,17.10
2019-06-20T03:44:12.879Z,17.30
2019-06-20T03:46:41.703Z,17.30
2019-06-20T03:49:10.255Z,17.60
2019-06-20T03:51:38.854Z,17.30
2019-06-20T03:54:07.502Z,18.10
2019-06-20T03:56:36.044Z,17.90
2019-06-20T03:59:04.747Z,17.80
2019-06-20T04:01:33.470Z,17.00
2019-06-20T04:04:02.047Z,16.80
2019-06-20T04:06:30.626Z,17.40
2019-06-20T04:09:18.666Z,17.00
2019-06-20T04:11:47.154Z,17.40
2019-06-20T04:14:15.742Z,17.30
2019-06-20T04:16:44.406Z,17.40
2019-06-20T04:19:12.947Z,17.30
2019-06-20T04:21:41.509Z,17.40
2019-06-20T04:24:10.070Z,17.80
2019-06-20T04:26:38.552Z,17.80
2019-06-20T04:29:07.101Z,17.10
2019-06-20T04:31:35.677Z,16.20
2019-06-20T04:34:04.387Z,15.80
2019-06-20T04:36:32.997Z,15.70
2019-06-20T04:39:01.708Z,15.70
2019-06-20T04:41:30.429Z,15.40
2019-06-20T04:43:58.907Z,15.90
2019-06-20T04:46:29.040Z,16.70
2019-06-20T04:48:57.576Z,16.50
2019-06-20T04:51:26.147Z,16.90
2019-06-20T04:53:54.736Z,15.80
2019-06-20T04:56:23.361Z,15.60
2019-06-20T04:58:51.938Z,15.90
2019-06-20T05:01:20.623Z,15.80
2019-06-20T05:03:49.320Z,16.20
2019-06-20T05:06:18.018Z,16.30
2019-06-20T05:08:46.662Z,16.20
2019-06-20T05:11:15.271Z,15.90
2019-06-20T05:13:43.836Z,16.00
2019-06-20T05:16:12.405Z,15.40
2019-06-20T05:18:40.941Z,14.90
2019-06-20T05:21:09.495Z,14.80
2019-06-20T05:23:38.292Z,15.30
2019-06-20T05:26:07.162Z,15.40
2019-06-20T05:28:35.697Z,15.20
2019-06-20T05:31:04.365Z,14.70
2019-06-20T05:33:33.028Z,14.60
2019-06-20T05:36:01.640Z,14.90
2019-06-20T05:38:30.138Z,15.30
2019-06-20T05:40:58.721Z,15.40
2019-06-20T05:43:32.756Z,15.40
2019-06-20T05:46:09.330Z,14.60
2019-06-20T05:48:31.661Z,14.90
2019-06-20T05:51:00.268Z,15.30
2019-06-20T05:53:28.955Z,15.40
2019-06-20T05:55:57.563Z,15.50
2019-06-20T05:58:26.095Z,15.30
2019-06-20T06:00:54.659Z,15.10
2019-06-20T06:03:23.186Z,15.10
2019-06-20T06:05:51.857Z,14.90
2019-06-20T06:08:20.502Z,15.30
2019-06-20T06:10:49.177Z,15.20
2019-06-20T06:13:17.915Z,15.20
2019-06-20T06:15:46.549Z,14.90
2019-06-20T06:18:15.108Z,15.10
2019-06-20T06:20:45.005Z,15.30
2019-06-20T06:23:14.023Z,15.60
2019-06-20T06:25:42.842Z,15.60
2019-06-20T06:28:12.453Z,15.50
2019-06-20T06:30:41.445Z,15.70
2019-06-20T06:33:10.064Z,15.20
2019-06-20T06:35:38.603Z,15.60
2019-06-20T06:38:07.165Z,15.80
2019-06-20T06:40:35.803Z,15.70
2019-06-20T06:43:04.634Z,15.60
2019-06-20T06:45:33.259Z,15.70
2019-06-20T06:48:01.973Z,15.50
2019-06-20T06:50:30.586Z,15.50
2019-06-20T06:52:59.210Z,16.20
2019-06-20T06:55:28.066Z,16.80
2019-06-20T06:57:56.760Z,16.80
2019-06-20T07:00:25.467Z,17.20
2019-06-20T07:02:54.680Z,16.80
2019-06-20T07:05:23.511Z,16.60
2019-06-20T07:07:52.008Z,16.40
2019-06-20T07:10:21.356Z,17.00
2019-06-20T07:12:51.121Z,16.70
2019-06-20T07:15:20.417Z,16.70
2019-06-20T07:17:49.057Z,16.60
2019-06-20T07:20:17.928Z,16.30
2019-06-20T07:22:46.674Z,16.10
2019-06-20T07:25:15.484Z,16.70
2019-06-20T07:27:44.135Z,16.70
2019-06-20T07:30:13.718Z,16.80
2019-06-20T07:32:42.280Z,16.20
2019-06-20T07:35:11.482Z,16.50
2019-06-20T07:37:40.038Z,16.10
2019-06-20T07:40:10.440Z,15.90
2019-06-20T07:42:39.124Z,16.60
2019-06-20T07:45:09.433Z,17.00
2019-06-20T07:47:38.436Z,16.80
2019-06-20T07:50:08.563Z,16.60
2019-06-20T07:52:37.265Z,16.40
2019-06-20T07:55:09.394Z,16.90
2019-06-20T07:57:38.304Z,17.50
2019-06-20T08:00:09.932Z,17.40
2019-06-20T08:02:38.709Z,17.30
2019-06-20T08:05:26.755Z,17.30
2019-06-20T08:07:55.303Z,17.40
2019-06-20T08:10:24.116Z,17.70
2019-06-20T08:12:52.883Z,17.60
2019-06-20T08:15:22.252Z,17.70
2019-06-20T08:17:50.973Z,18.20
2019-06-20T08:20:20.115Z,17.10
2019-06-20T08:22:48.724Z,17.20
2019-06-20T08:25:17.759Z,17.20
2019-06-20T08:27:50.000Z,17.20
2019-06-20T08:30:39.391Z,17.50
2019-06-20T08:33:11.861Z,17.90
2019-06-20T08:35:39.508Z,18.30
2019-06-20T08:38:08.081Z,18.30
2019-06-20T08:40:43.042Z,18.20
2019-06-20T08:43:11.688Z,17.90
2019-06-20T08:45:42.452Z,18.40
2019-06-20T08:48:12.099Z,18.10
2019-06-20T08:50:41.918Z,18.20
2019-06-20T08:53:10.634Z,18.80
2019-06-20T08:55:39.242Z,18.40
2019-06-20T08:58:08.063Z,17.90
2019-06-20T09:00:37.744Z,17.60
2019-06-20T09:03:06.697Z,17.50
2019-06-20T09:05:35.761Z,17.80
2019-06-20T09:08:05.932Z,18.40
2019-06-20T09:10:41.949Z,18.50
2019-06-20T09:13:12.246Z,18.90
2019-06-20T09:15:41.374Z,18.70
2019-06-20T09:18:10.221Z,18.80
2019-06-20T09:20:39.112Z,18.60
2019-06-20T09:23:07.903Z,18.80
2019-06-20T09:25:36.815Z,18.40
2019-06-20T09:28:06.544Z,18.80
2019-06-20T09:30:36.898Z,18.40
2019-06-20T09:33:05.764Z,18.20
2019-06-20T09:35:53.924Z,18.40
2019-06-20T09:38:36.755Z,18.60
2019-06-20T09:41:05.488Z,19.00
2019-06-20T09:43:34.118Z,18.80
2019-06-20T09:46:03.280Z,18.30
2019-06-20T09:48:31.859Z,18.50
2019-06-20T09:51:00.424Z,18.50
2019-06-20T09:53:29.060Z,19.00
2019-06-20T09:55:57.829Z,19.00
2019-06-20T09:58:26.533Z,19.20
2019-06-20T10:00:55.191Z,19.10
2019-06-20T10:03:23.863Z,18.80
2019-06-20T10:05:52.567Z,19.00
2019-06-20T10:08:21.281Z,19.10
2019-06-20T10:10:50.717Z,19.30
2019-06-20T10:13:20.302Z,19.20
2019-06-20T10:15:49.457Z,19.60
2019-06-20T10:18:18.082Z,19.80
2019-06-20T10:20:47.243Z,19.90
2019-06-20T10:23:15.932Z,19.60
2019-06-20T10:25:46.105Z,19.00
2019-06-20T10:28:14.894Z,18.70
2019-06-20T10:30:44.696Z,18.10
2019-06-20T10:33:13.532Z,18.20
2019-06-20T10:35:42.086Z,18.80
2019-06-20T10:38:10.650Z,19.20
2019-06-20T10:40:39.355Z,19.30
2019-06-20T10:43:08.023Z,19.70
2019-06-20T10:45:37.268Z,19.40
2019-06-20T10:48:06.289Z,19.40
2019-06-20T10:50:35.013Z,19.30
2019-06-20T10:53:03.825Z,18.80
2019-06-20T10:55:32.516Z,19.10
2019-06-20T10:58:01.377Z,19.30
2019-06-20T11:00:50.393Z,19.00
2019-06-20T11:03:19.101Z,18.80
2019-06-20T11:05:48.182Z,19.30
2019-06-20T11:08:16.947Z,18.90
2019-06-20T11:10:45.687Z,19.10
2019-06-20T11:13:14.366Z,19.10
2019-06-20T11:15:44.068Z,18.50
2019-06-20T11:18:12.722Z,18.60
2019-06-20T11:20:42.759Z,18.70
2019-06-20T11:23:11.504Z,18.50
2019-06-20T11:25:41.625Z,19.20
2019-06-20T11:28:10.531Z,19.10
2019-06-20T11:30:52.992Z,18.80
2019-06-20T11:33:09.873Z,19.20
2019-06-20T11:35:39.285Z,19.30
2019-06-20T11:38:08.130Z,19.20
2019-06-20T11:40:38.098Z,19.30
2019-06-20T11:43:07.312Z,19.60
2019-06-20T11:45:37.269Z,20.10
2019-06-20T11:48:06.352Z,19.90
2019-06-20T11:50:36.152Z,19.60
2019-06-20T11:53:05.204Z,19.50
2019-06-20T11:55:33.785Z,20.40
2019-06-20T11:58:02.325Z,20.60
2019-06-20T12:00:31.177Z,20.60
2019-06-20T12:02:59.793Z,20.50
2019-06-20T12:05:28.471Z,20.80
2019-06-20T12:08:17.860Z,21.00
2019-06-20T12:10:47.329Z,20.90
2019-06-20T12:13:16.063Z,20.20
2019-06-20T12:15:44.689Z,20.30
2019-06-20T12:18:13.255Z,20.50
2019-06-20T12:20:42.863Z,20.60
2019-06-20T12:23:18.923Z,19.60
2019-06-20T12:25:48.763Z,19.80
2019-06-20T12:28:17.436Z,19.80
2019-06-20T12:30:46.018Z,20.20
2019-06-20T12:33:14.573Z,20.40
2019-06-20T12:35:44.430Z,20.10
2019-06-20T12:38:15.122Z,20.30
2019-06-20T12:40:44.080Z,20.10
2019-06-20T12:43:12.828Z,20.60
2019-06-20T12:45:42.800Z,19.90
2019-06-20T12:48:11.544Z,19.90
2019-06-20T12:50:41.363Z,20.60
2019-06-20T12:53:10.368Z,20.90
2019-06-20T12:55:40.266Z,20.40
2019-06-20T12:58:08.957Z,20.20
2019-06-20T13:00:39.584Z,19.40
2019-06-20T13:03:08.188Z,18.90
2019-06-20T13:05:36.820Z,19.40
2019-06-20T13:08:05.565Z,19.30
2019-06-20T13:10:34.214Z,19.80
2019-06-20T13:13:03.055Z,19.30
2019-06-20T13:15:31.710Z,19.20
2019-06-20T13:18:00.310Z,19.20
2019-06-20T13:20:28.955Z,19.30
2019-06-20T13:22:57.814Z,19.20
2019-06-20T13:25:26.430Z,19.70
2019-06-20T13:27:55.047Z,20.10
2019-06-20T13:30:23.895Z,20.90
2019-06-20T13:32:52.537Z,20.90
2019-06-20T13:35:21.451Z,20.60
2019-06-20T13:37:50.376Z,20.40
2019-06-20T13:40:19.409Z,19.40
2019-06-20T13:42:48.163Z,20.00
2019-06-20T13:45:23.932Z,19.50
2019-06-20T13:47:52.895Z,19.20
2019-06-20T13:50:24.641Z,19.50
2019-06-20T13:52:53.391Z,19.20
2019-06-20T13:55:22.107Z,19.50
2019-06-20T13:57:51.195Z,19.60
2019-06-20T14:00:22.568Z,19.70
2019-06-20T14:02:51.672Z,19.10
2019-06-20T14:05:20.882Z,18.90
2019-06-20T14:07:53.312Z,18.70
2019-06-20T14:10:20.569Z,19.30
2019-06-20T14:12:49.445Z,19.30
2019-06-20T14:15:18.550Z,19.50
2019-06-20T14:17:47.591Z,20.60
2019-06-20T14:20:17.077Z,21.60
2019-06-20T14:22:45.663Z,22.30
2019-06-20T14:25:14.527Z,21.10
2019-06-20T14:27:43.987Z,21.50
2019-06-20T14:30:13.537Z,20.80
2019-06-20T14:32:43.279Z,20.30
2019-06-20T14:35:12.736Z,19.90
2019-06-20T14:37:43.421Z,19.20
2019-06-20T14:40:12.612Z,19.20
2019-06-20T14:42:41.260Z,19.50
2019-06-20T14:45:10.691Z,19.40
2019-06-20T14:47:39.394Z,19.80
2019-06-20T14:50:09.408Z,19.80
2019-06-20T14:52:38.208Z,19.00
2019-06-20T14:55:08.710Z,18.70
2019-06-20T14:57:37.432Z,18.70
2019-06-20T15:00:08.685Z,19.00
2019-06-20T15:02:38.694Z,20.10
2019-06-20T15:05:13.699Z,21.10
2019-06-20T15:07:42.418Z,22.70
2019-06-20T15:10:11.326Z,22.90
2019-06-20T15:12:39.899Z,23.50
2019-06-20T15:15:09.349Z,24.20
2019-06-20T15:17:38.064Z,21.80
2019-06-20T15:20:09.170Z,20.40
2019-06-20T15:22:37.908Z,20.20
2019-06-20T15:25:07.217Z,19.50
2019-06-20T15:27:35.943Z,19.20
2019-06-20T15:30:06.913Z,19.60
2019-06-20T15:32:35.620Z,19.90
2019-06-20T15:35:06.826Z,20.60
2019-06-20T15:37:35.495Z,20.60
2019-06-20T15:40:05.999Z,20.60
2019-06-20T15:42:34.679Z,20.80
2019-06-20T15:45:04.583Z,21.10
2019-06-20T15:47:33.247Z,20.80
2019-06-20T15:50:01.871Z,20.40
2019-06-20T15:52:30.476Z,20.30
2019-06-20T15:54:59.112Z,19.60
2019-06-20T15:57:27.773Z,19.80
2019-06-20T15:59:56.322Z,19.30
2019-06-20T16:02:25.032Z,20.70
2019-06-20T16:04:53.792Z,22.80
2019-06-20T16:07:22.384Z,23.70
2019-06-20T16:09:51.017Z,23.10
2019-06-20T16:12:19.676Z,22.30
2019-06-20T16:14:48.430Z,21.70
2019-06-20T16:17:17.079Z,23.00
2019-06-20T16:19:45.816Z,23.80
2019-06-20T16:22:14.431Z,23.50
2019-06-20T16:24:42.983Z,22.90
2019-06-20T16:27:11.648Z,23.00
2019-06-20T16:29:40.302Z,21.50
2019-06-20T16:32:09.120Z,21.40
2019-06-20T16:34:37.829Z,21.80
2019-06-20T16:37:10.019Z,21.40
2019-06-20T16:39:36.727Z,21.10
2019-06-20T16:42:05.362Z,21.30
2019-06-20T16:44:33.898Z,21.70
2019-06-20T16:47:02.515Z,23.10
2019-06-20T16:49:31.098Z,23.70
2019-06-20T16:51:59.671Z,22.60
2019-06-20T16:54:28.254Z,22.00
2019-06-20T16:56:56.845Z,21.50
2019-06-20T16:59:25.494Z,20.90
2019-06-20T17:01:54.083Z,20.50
2019-06-20T17:04:22.796Z,20.30
2019-06-20T17:06:51.344Z,20.50
2019-06-20T17:09:19.900Z,20.20
2019-06-20T17:11:48.610Z,20.60
2019-06-20T17:14:17.175Z,21.00
2019-06-20T17:16:45.824Z,22.40
2019-06-20T17:19:14.518Z,23.10
2019-06-20T17:21:43.158Z,23.90
2019-06-20T17:24:11.820Z,23.60
2019-06-20T17:26:40.614Z,22.60
2019-06-20T17:29:09.258Z,21.40
2019-06-20T17:31:38.000Z,20.70
2019-06-20T17:34:06.640Z,21.10
2019-06-20T17:36:35.327Z,20.60
2019-06-20T17:39:05.500Z,20.50
2019-06-20T17:41:34.091Z,20.60
2019-06-20T17:44:02.721Z,21.00
2019-06-20T17:46:31.342Z,21.70
2019-06-20T17:48:59.993Z,22.90
2019-06-20T17:51:28.660Z,23.80
2019-06-20T17:53:57.311Z,23.10
2019-06-20T17:56:25.930Z,23.20
2019-06-20T17:58:54.479Z,22.40
2019-06-20T18:01:23.044Z,22.30
2019-06-20T18:03:51.614Z,21.80
2019-06-20T18:06:20.300Z,22.50
2019-06-20T18:08:48.998Z,21.20
2019-06-20T18:11:17.682Z,20.50
2019-06-20T18:13:46.237Z,20.60
2019-06-20T18:16:24.451Z,20.70
2019-06-20T18:18:45.174Z,20.30
2019-06-20T18:21:13.767Z,19.90
2019-06-20T18:23:42.410Z,19.60
2019-06-20T18:26:11.009Z,19.00
2019-06-20T18:28:39.550Z,19.80
2019-06-20T18:31:08.048Z,20.00
2019-06-20T18:33:36.607Z,19.90
2019-06-20T18:36:05.320Z,20.40
2019-06-20T18:38:33.989Z,19.50
2019-06-20T18:41:02.567Z,19.60
2019-06-20T18:43:31.306Z,20.20
2019-06-20T18:45:59.865Z,20.20
2019-06-20T18:48:28.472Z,19.70
2019-06-20T18:50:57.284Z,19.20
2019-06-20T18:53:26.011Z,19.30
2019-06-20T18:55:54.727Z,19.60
2019-06-20T18:58:23.302Z,20.10
2019-06-20T19:00:51.857Z,19.30
2019-06-20T19:03:21.422Z,19.00
2019-06-20T19:05:50.236Z,18.70
2019-06-20T19:08:18.941Z,19.10
2019-06-20T19:10:47.657Z,18.90
2019-06-20T19:13:16.347Z,19.00
2019-06-20T19:15:45.200Z,19.40
2019-06-20T19:18:15.980Z,19.20
2019-06-20T19:20:44.643Z,19.10
2019-06-20T19:23:13.636Z,19.70
2019-06-20T19:25:42.376Z,19.80
2019-06-20T19:28:11.015Z,20.00
2019-06-20T19:30:51.282Z,19.60
2019-06-20T19:33:27.322Z,19.40
2019-06-20T19:35:55.880Z,19.20
2019-06-20T19:38:24.420Z,19.50
2019-06-20T19:40:53.211Z,19.10
2019-06-20T19:43:22.144Z,18.50
2019-06-20T19:45:50.955Z,18.60
2019-06-20T19:48:19.639Z,18.20
2019-06-20T19:50:48.312Z,18.30
2019-06-20T19:53:17.159Z,18.60
2019-06-20T19:55:45.889Z,18.60
2019-06-20T19:58:14.521Z,18.90
2019-06-20T20:00:43.321Z,19.00
2019-06-20T20:03:12.145Z,18.80
2019-06-20T20:05:40.971Z,18.70
2019-06-20T20:08:09.840Z,18.30
2019-06-20T20:10:43.907Z,18.20
2019-06-20T20:13:15.357Z,18.10
2019-06-20T20:15:43.681Z,17.70
2019-06-20T20:18:12.739Z,17.10
2019-06-20T20:20:41.482Z,17.10
2019-06-20T20:23:10.040Z,16.50
2019-06-20T20:25:38.602Z,16.30
2019-06-20T20:28:07.386Z,16.00
2019-06-20T20:30:36.076Z,15.60
2019-06-20T20:33:05.079Z,16.10
2019-06-20T20:35:35.878Z,16.50
2019-06-20T20:38:04.244Z,16.90
2019-06-20T20:40:32.985Z,16.90
2019-06-20T20:43:01.673Z,17.00
2019-06-20T20:45:30.614Z,17.20
2019-06-20T20:47:59.343Z,16.80
2019-06-20T20:50:28.011Z,17.10
2019-06-20T20:52:56.814Z,17.20
2019-06-20T20:55:25.422Z,17.20
2019-06-20T20:57:53.998Z,17.40
2019-06-20T21:00:40.511Z,17.20
2019-06-20T21:03:09.229Z,17.00
2019-06-20T21:05:50.710Z,17.00
2019-06-20T21:08:08.205Z,17.00
2019-06-20T21:10:37.017Z,17.10
2019-06-20T21:13:05.635Z,16.80
2019-06-20T21:15:34.263Z,17.00
2019-06-20T21:18:02.945Z,17.60
2019-06-20T21:20:31.634Z,17.40
2019-06-20T21:23:00.299Z,18.10
2019-06-20T21:25:32.072Z,17.90
2019-06-20T21:27:59.442Z,17.80
2019-06-20T21:30:47.584Z,17.40
2019-06-20T21:33:16.385Z,17.50
2019-06-20T21:35:45.102Z,16.80
2019-06-20T21:38:13.665Z,17.30
2019-06-20T21:40:42.294Z,17.20
2019-06-20T21:43:11.054Z,17.10
2019-06-20T21:45:39.642Z,17.00
2019-06-20T21:48:08.339Z,17.30
2019-06-20T21:50:36.938Z,16.80
2019-06-20T21:53:05.626Z,16.30
2019-06-20T21:55:34.199Z,16.10
2019-06-20T21:58:03.011Z,16.60
2019-06-20T22:00:39.133Z,16.00
2019-06-20T22:03:09.095Z,15.70
2019-06-20T22:05:38.140Z,16.20
2019-06-20T22:08:09.573Z,16.00
2019-06-20T22:10:38.381Z,15.50
2019-06-20T22:13:07.179Z,15.80
2019-06-20T22:15:35.966Z,16.00
2019-06-20T22:18:04.780Z,16.60
2019-06-20T22:20:33.725Z,16.90
2019-06-20T22:23:02.334Z,16.50
2019-06-20T22:25:30.996Z,15.90
2019-06-20T22:27:59.726Z,15.90
2019-06-20T22:30:43.544Z,15.50
2019-06-20T22:33:12.193Z,15.70
2019-06-20T22:35:41.013Z,16.00
2019-06-20T22:38:09.753Z,15.60
2019-06-20T22:40:38.279Z,15.20
2019-06-20T22:43:07.039Z,15.30
2019-06-20T22:45:35.761Z,15.40
2019-06-20T22:48:05.030Z,15.60
2019-06-20T22:50:33.693Z,16.00
2019-06-20T22:53:02.577Z,15.60
2019-06-20T22:55:31.280Z,15.50
2019-06-20T22:57:59.820Z,14.90
2019-06-20T23:00:28.748Z,14.80
2019-06-20T23:02:58.914Z,14.50
2019-06-20T23:05:27.679Z,14.20
2019-06-20T23:07:56.439Z,14.10
2019-06-20T23:10:25.455Z,14.30
2019-06-20T23:12:54.075Z,14.00
2019-06-20T23:15:23.402Z,13.80
2019-06-20T23:17:52.151Z,14.00
2019-06-20T23:20:20.703Z,14.50
2019-06-20T23:22:49.282Z,14.50
2019-06-20T23:25:18.754Z,14.50
2019-06-20T23:27:47.328Z,14.80
2019-06-20T23:30:18.791Z,14.60
2019-06-20T23:32:47.547Z,14.90
2019-06-20T23:35:16.276Z,14.90
2019-06-20T23:37:44.898Z,14.90
2019-06-20T23:40:13.739Z,15.20
2019-06-20T23:42:42.499Z,14.70
2019-06-20T23:45:11.444Z,14.90
2019-06-20T23:47:40.064Z,15.50
2019-06-20T23:50:18.561Z,15.50
2019-06-20T23:52:53.568Z,15.40
2019-06-20T23:55:22.159Z,15.20
2019-06-20T23:57:50.723Z,14.90
